createdAt,value
2019-02-17T20:08:48.600Z,120.08
2019-02-17T20:11:18.860Z,134.32
2019-02-17T20:13:48.687Z,148.90
2019-02-17T20:16:19.083Z,130.43
2019-02-17T20:18:49.342Z,128.50
2019-02-17T20:21:18.801Z,123.25
2019-02-17T20:23:49.478Z,116.88
2019-02-17T20:26:21.270Z,115.35
2019-02-17T20:28:57.128Z,120.45
2019-02-17T20:31:23.271Z,111.08
2019-02-17T20:33:53.734Z,112.85
2019-02-17T20:36:24.745Z,100.20
2019-02-17T20:38:54.466Z,102.70
2019-02-17T20:41:24.036Z,104.70
2019-02-17T20:43:54.028Z,99.45
2019-02-17T20:46:23.725Z,103.27
2019-02-17T20:48:53.850Z,94.80
2019-02-17T20:51:23.633Z,94.87
2019-02-17T20:53:53.613Z,89.37
2019-02-17T20:56:24.003Z,86.75
2019-02-17T20:58:53.506Z,91.35
2019-02-17T21:01:23.023Z,81.32
2019-02-17T21:03:52.614Z,97.15
2019-02-17T21:06:22.120Z,100.27
2019-02-17T21:08:52.330Z,92.70
2019-02-17T21:11:22.387Z,113.77
2019-02-17T21:13:52.478Z,91.45
2019-02-17T21:16:23.417Z,107.80
2019-02-17T21:18:53.213Z,91.75
2019-02-17T21:24:34.579Z,124.35
2019-02-17T21:37:01.051Z,152.87
2019-02-17T21:39:30.643Z,124.90
2019-02-17T21:42:00.273Z,125.82
2019-02-17T21:44:30.362Z,119.62
2019-02-17T21:46:59.810Z,141.92
2019-02-17T21:49:29.653Z,129.63
2019-02-17T21:51:59.270Z,143.28
2019-02-17T21:54:29.939Z,125.33
2019-02-17T21:56:59.465Z,130.90
2019-02-17T21:59:29.481Z,160.72
2019-02-17T22:01:59.162Z,171.68
2019-02-17T22:04:28.980Z,166.15
2019-02-17T22:06:58.634Z,163.95
